sensor_id;sensor_type;location;lat;lon;timestamp;pressure;altitude;pressure_sealevel;temperature;humidity
79347;BME280;68815;48.810;44.482;2023-11-18T00:02:53;100381;;;6.4;84.7
79347;BME280;68815;48.810;44.482;2023-11-18T00:05:55;100381;;;6.4;84.5
79347;BME280;68815;48.810;44.482;2023-11-18T00:08:56;100381;;;6.4;84.2
79347;BME280;68815;48.810;44.482;2023-11-18T00:11:58;100384;;;6.5;83.9
79347;BME280;68815;48.810;44.482;2023-11-18T00:15:00;100383;;;6.5;84.1
79347;BME280;68815;48.810;44.482;2023-11-18T00:18:01;100383;;;6.3;84.8
79347;BME280;68815;48.810;44.482;2023-11-18T00:21:03;100383;;;6.3;85.1
79347;BME280;68815;48.810;44.482;2023-11-18T00:24:05;100387;;;6.3;85.2
79347;BME280;68815;48.810;44.482;2023-11-18T00:27:07;100393;;;6.4;84.9
79347;BME280;68815;48.810;44.482;2023-11-18T00:30:09;100395;;;6.3;85.2
79347;BME280;68815;48.810;44.482;2023-11-18T00:33:11;100403;;;6.2;85.7
79347;BME280;68815;48.810;44.482;2023-11-18T00:36:12;100401;;;6.2;85.7
79347;BME280;68815;48.810;44.482;2023-11-18T00:39:14;100400;;;6.2;86
79347;BME280;68815;48.810;44.482;2023-11-18T00:42:15;100403;;;6.1;86.3
79347;BME280;68815;48.810;44.482;2023-11-18T00:45:17;100404;;;6.3;85.5
79347;BME280;68815;48.810;44.482;2023-11-18T00:48:19;100402;;;6.2;85.8
79347;BME280;68815;48.810;44.482;2023-11-18T00:51:20;100405;;;6.1;86.5
79347;BME280;68815;48.810;44.482;2023-11-18T00:54:22;100398;;;6;86.9
79347;BME280;68815;48.810;44.482;2023-11-18T00:57:23;100399;;;6;87
79347;BME280;68815;48.810;44.482;2023-11-18T01:00:25;100400;;;6.3;85.8
79347;BME280;68815;48.810;44.482;2023-11-18T01:03:27;100401;;;6.1;86.6
79347;BME280;68815;48.810;44.482;2023-11-18T01:06:29;100403;;;6.1;86.9
79347;BME280;68815;48.810;44.482;2023-11-18T01:09:30;100398;;;6.1;86.6
79347;BME280;68815;48.810;44.482;2023-11-18T01:12:32;100405;;;6.2;86.8
79347;BME280;68815;48.810;44.482;2023-11-18T01:15:33;100398;;;6.3;85.8
79347;BME280;68815;48.810;44.482;2023-11-18T01:18:35;100400;;;6.2;86
79347;BME280;68815;48.810;44.482;2023-11-18T01:21:36;100395;;;6.2;85.9
79347;BME280;68815;48.810;44.482;2023-11-18T01:24:38;100394;;;6;86.7
79347;BME280;68815;48.810;44.482;2023-11-18T01:27:40;100395;;;6;87.1
79347;BME280;68815;48.810;44.482;2023-11-18T01:30:41;100389;;;6;87.2
79347;BME280;68815;48.810;44.482;2023-11-18T01:33:43;100394;;;6.1;86.8
79347;BME280;68815;48.810;44.482;2023-11-18T01:36:45;100392;;;6.1;86.9
79347;BME280;68815;48.810;44.482;2023-11-18T01:39:46;100395;;;6.2;86.1
79347;BME280;68815;48.810;44.482;2023-11-18T01:42:48;100394;;;6.4;85.5
79347;BME280;68815;48.810;44.482;2023-11-18T01:45:49;100394;;;6.3;85.5
79347;BME280;68815;48.810;44.482;2023-11-18T01:48:52;100398;;;6.3;85.7
79347;BME280;68815;48.810;44.482;2023-11-18T01:51:54;100407;;;6.5;85.2
79347;BME280;68815;48.810;44.482;2023-11-18T01:54:56;100406;;;6.4;85
79347;BME280;68815;48.810;44.482;2023-11-18T01:57:57;100409;;;6.6;84.8
79347;BME280;68815;48.810;44.482;2023-11-18T02:00:59;100418;;;6.6;84.8
79347;BME280;68815;48.810;44.482;2023-11-18T02:04:01;100417;;;6.6;85.3
79347;BME280;68815;48.810;44.482;2023-11-18T02:07:05;100414;;;6.6;85.2
79347;BME280;68815;48.810;44.482;2023-11-18T02:10:07;100414;;;6.4;86.3
79347;BME280;68815;48.810;44.482;2023-11-18T02:13:13;100413;;;6.3;86.9
79347;BME280;68815;48.810;44.482;2023-11-18T02:16:22;100417;;;6.3;86.5
79347;BME280;68815;48.810;44.482;2023-11-18T02:19:26;100420;;;6.2;87.3
79347;BME280;68815;48.810;44.482;2023-11-18T02:22:28;100422;;;6.4;86.5
79347;BME280;68815;48.810;44.482;2023-11-18T02:25:32;100419;;;6.3;86.6
79347;BME280;68815;48.810;44.482;2023-11-18T02:28:34;100422;;;6.5;86.2
79347;BME280;68815;48.810;44.482;2023-11-18T02:31:36;100427;;;6.4;86.3
79347;BME280;68815;48.810;44.482;2023-11-18T02:34:41;100426;;;6.4;86.5
79347;BME280;68815;48.810;44.482;2023-11-18T02:37:50;100427;;;6.4;86.6
79347;BME280;68815;48.810;44.482;2023-11-18T02:40:56;100424;;;6.5;85.7
79347;BME280;68815;48.810;44.482;2023-11-18T02:43:59;100428;;;6.6;85.1
79347;BME280;68815;48.810;44.482;2023-11-18T02:47:01;100428;;;6.5;85.4
79347;BME280;68815;48.810;44.482;2023-11-18T02:50:03;100429;;;6.6;85.1
79347;BME280;68815;48.810;44.482;2023-11-18T02:53:05;100429;;;6.6;85.1
79347;BME280;68815;48.810;44.482;2023-11-18T02:56:07;100433;;;6.6;84.6
79347;BME280;68815;48.810;44.482;2023-11-18T02:59:09;100437;;;6.7;84.4
79347;BME280;68815;48.810;44.482;2023-11-18T03:02:11;100438;;;6.5;85.1
79347;BME280;68815;48.810;44.482;2023-11-18T03:05:12;100435;;;6.5;85.2
79347;BME280;68815;48.810;44.482;2023-11-18T03:08:14;100435;;;6.6;85
79347;BME280;68815;48.810;44.482;2023-11-18T03:11:15;100434;;;6.9;83.7
79347;BME280;68815;48.810;44.482;2023-11-18T03:14:17;100440;;;6.8;82.9
79347;BME280;68815;48.810;44.482;2023-11-18T03:17:19;100439;;;6.8;83.4
79347;BME280;68815;48.810;44.482;2023-11-18T03:20:21;100438;;;6.9;83.1
79347;BME280;68815;48.810;44.482;2023-11-18T03:23:23;100445;;;6.9;83.2
79347;BME280;68815;48.810;44.482;2023-11-18T03:26:25;100444;;;6.8;83.7
79347;BME280;68815;48.810;44.482;2023-11-18T03:29:26;100448;;;6.8;83.6
79347;BME280;68815;48.810;44.482;2023-11-18T03:32:28;100452;;;6.9;84.2
79347;BME280;68815;48.810;44.482;2023-11-18T03:35:29;100454;;;6.8;84.1
79347;BME280;68815;48.810;44.482;2023-11-18T03:38:31;100454;;;6.6;85.6
79347;BME280;68815;48.810;44.482;2023-11-18T03:41:33;100455;;;6.6;85.9
79347;BME280;68815;48.810;44.482;2023-11-18T03:44:35;100453;;;6.5;86.2
79347;BME280;68815;48.810;44.482;2023-11-18T03:47:37;100458;;;6.5;86.6
79347;BME280;68815;48.810;44.482;2023-11-18T03:50:39;100459;;;6.5;86.1
79347;BME280;68815;48.810;44.482;2023-11-18T03:53:40;100459;;;6.5;86.6
79347;BME280;68815;48.810;44.482;2023-11-18T03:56:43;100462;;;6.5;87.4
79347;BME280;68815;48.810;44.482;2023-11-18T03:59:44;100458;;;6.4;87.4
79347;BME280;68815;48.810;44.482;2023-11-18T04:02:46;100465;;;6.3;87.8
79347;BME280;68815;48.810;44.482;2023-11-18T04:05:48;100461;;;6.2;88.7
79347;BME280;68815;48.810;44.482;2023-11-18T04:08:50;100463;;;6.3;88.6
79347;BME280;68815;48.810;44.482;2023-11-18T04:11:52;100465;;;6.2;88.3
79347;BME280;68815;48.810;44.482;2023-11-18T04:14:54;100475;;;6.3;88.8
79347;BME280;68815;48.810;44.482;2023-11-18T04:17:55;100478;;;6.2;88.4
79347;BME280;68815;48.810;44.482;2023-11-18T04:20:57;100478;;;6.2;89
79347;BME280;68815;48.810;44.482;2023-11-18T04:23:58;100483;;;6.3;88.3
79347;BME280;68815;48.810;44.482;2023-11-18T04:27:00;100485;;;6.2;88
79347;BME280;68815;48.810;44.482;2023-11-18T04:30:02;100482;;;6.1;89.1
79347;BME280;68815;48.810;44.482;2023-11-18T04:33:03;100487;;;6.1;89.1
79347;BME280;68815;48.810;44.482;2023-11-18T04:36:07;100495;;;6.1;89.3
79347;BME280;68815;48.810;44.482;2023-11-18T04:39:08;100493;;;6.2;88.9
79347;BME280;68815;48.810;44.482;2023-11-18T04:42:11;100501;;;6.2;89.4
79347;BME280;68815;48.810;44.482;2023-11-18T04:45:12;100500;;;6.1;89.5
79347;BME280;68815;48.810;44.482;2023-11-18T04:48:14;100508;;;6.3;89.9
79347;BME280;68815;48.810;44.482;2023-11-18T04:51:16;100508;;;6.2;89.8
79347;BME280;68815;48.810;44.482;2023-11-18T04:54:18;100510;;;6.2;90.4
79347;BME280;68815;48.810;44.482;2023-11-18T04:57:20;100513;;;6.2;90.3
79347;BME280;68815;48.810;44.482;2023-11-18T05:00:21;100519;;;6.3;89.9
79347;BME280;68815;48.810;44.482;2023-11-18T05:03:23;100521;;;6.2;90.1
79347;BME280;68815;48.810;44.482;2023-11-18T05:06:24;100520;;;6.3;90
79347;BME280;68815;48.810;44.482;2023-11-18T05:09:26;100522;;;6.2;89.9
79347;BME280;68815;48.810;44.482;2023-11-18T05:12:27;100527;;;6.1;90.9
79347;BME280;68815;48.810;44.482;2023-11-18T05:15:29;100527;;;5.9;91.5
79347;BME280;68815;48.810;44.482;2023-11-18T05:18:31;100536;;;6;91.4
79347;BME280;68815;48.810;44.482;2023-11-18T05:21:32;100540;;;5.8;92.1
79347;BME280;68815;48.810;44.482;2023-11-18T05:24:34;100543;;;6;93
79347;BME280;68815;48.810;44.482;2023-11-18T05:27:36;100545;;;5.9;92.6
79347;BME280;68815;48.810;44.482;2023-11-18T05:30:40;100542;;;5.9;92.1
79347;BME280;68815;48.810;44.482;2023-11-18T05:33:42;100547;;;6;92.5
79347;BME280;68815;48.810;44.482;2023-11-18T05:36:44;100547;;;6.1;91.9
79347;BME280;68815;48.810;44.482;2023-11-18T05:39:45;100553;;;5.8;91.4
79347;BME280;68815;48.810;44.482;2023-11-18T05:42:47;100552;;;5.5;92.3
79347;BME280;68815;48.810;44.482;2023-11-18T05:45:50;100563;;;5.3;93.5
79347;BME280;68815;48.810;44.482;2023-11-18T05:48:52;100566;;;5.4;93.7
79347;BME280;68815;48.810;44.482;2023-11-18T05:51:54;100564;;;5.2;93.6
79347;BME280;68815;48.810;44.482;2023-11-18T05:54:56;100565;;;5;94.4
79347;BME280;68815;48.810;44.482;2023-11-18T05:57:57;100564;;;5.1;94.3
79347;BME280;68815;48.810;44.482;2023-11-18T06:00:59;100570;;;5.2;93.6
79347;BME280;68815;48.810;44.482;2023-11-18T06:04:00;100574;;;5;94.2
79347;BME280;68815;48.810;44.482;2023-11-18T06:07:02;100587;;;4.9;94.2
79347;BME280;68815;48.810;44.482;2023-11-18T06:10:04;100596;;;4.8;94.3
79347;BME280;68815;48.810;44.482;2023-11-18T06:13:06;100592;;;4.9;94
79347;BME280;68815;48.810;44.482;2023-11-18T06:16:08;100598;;;4.9;94
79347;BME280;68815;48.810;44.482;2023-11-18T06:19:10;100601;;;4.9;93.8
79347;BME280;68815;48.810;44.482;2023-11-18T06:22:12;100600;;;4.9;93.4
79347;BME280;68815;48.810;44.482;2023-11-18T06:25:13;100602;;;4.7;93
79347;BME280;68815;48.810;44.482;2023-11-18T06:28:15;100597;;;4.8;93.3
79347;BME280;68815;48.810;44.482;2023-11-18T06:31:17;100604;;;4.8;93.8
79347;BME280;68815;48.810;44.482;2023-11-18T06:34:18;100599;;;4.8;93.6
79347;BME280;68815;48.810;44.482;2023-11-18T06:37:20;100597;;;4.8;93.5
79347;BME280;68815;48.810;44.482;2023-11-18T06:40:22;100603;;;4.7;94
79347;BME280;68815;48.810;44.482;2023-11-18T06:43:23;100599;;;4.6;93.9
79347;BME280;68815;48.810;44.482;2023-11-18T06:46:27;100606;;;4.6;94.2
79347;BME280;68815;48.810;44.482;2023-11-18T06:49:29;100609;;;4.7;94.7
79347;BME280;68815;48.810;44.482;2023-11-18T06:52:30;100615;;;4.6;94.7
79347;BME280;68815;48.810;44.482;2023-11-18T06:55:32;100621;;;4.6;94.6
79347;BME280;68815;48.810;44.482;2023-11-18T06:58:36;100628;;;4.6;94.5
79347;BME280;68815;48.810;44.482;2023-11-18T07:01:38;100634;;;4.6;94.5
79347;BME280;68815;48.810;44.482;2023-11-18T07:04:40;100632;;;4.5;94.4
79347;BME280;68815;48.810;44.482;2023-11-18T07:07:41;100637;;;4.5;94.6
79347;BME280;68815;48.810;44.482;2023-11-18T07:10:42;100637;;;4.4;94.9
79347;BME280;68815;48.810;44.482;2023-11-18T07:13:45;100633;;;4.4;95.1
79347;BME280;68815;48.810;44.482;2023-11-18T07:16:46;100634;;;4.5;94.8
79347;BME280;68815;48.810;44.482;2023-11-18T07:19:48;100637;;;4.4;94.3
79347;BME280;68815;48.810;44.482;2023-11-18T07:22:50;100639;;;4.3;94.5
79347;BME280;68815;48.810;44.482;2023-11-18T07:25:52;100641;;;4.2;95
79347;BME280;68815;48.810;44.482;2023-11-18T07:28:53;100647;;;4.2;95.2
79347;BME280;68815;48.810;44.482;2023-11-18T07:31:55;100652;;;4.2;95.2
79347;BME280;68815;48.810;44.482;2023-11-18T07:34:56;100648;;;4.1;95.5
79347;BME280;68815;48.810;44.482;2023-11-18T07:37:58;100648;;;4.1;95.3
79347;BME280;68815;48.810;44.482;2023-11-18T07:41:00;100648;;;4.1;95.8
79347;BME280;68815;48.810;44.482;2023-11-18T07:44:01;100652;;;4.1;95.3
79347;BME280;68815;48.810;44.482;2023-11-18T07:47:06;100643;;;4.1;95.1
79347;BME280;68815;48.810;44.482;2023-11-18T07:50:08;100645;;;4.1;94.5
79347;BME280;68815;48.810;44.482;2023-11-18T07:53:10;100650;;;4.2;94.1
79347;BME280;68815;48.810;44.482;2023-11-18T07:56:12;100655;;;4;93.8
79347;BME280;68815;48.810;44.482;2023-11-18T07:59:13;100660;;;3.9;94.3
79347;BME280;68815;48.810;44.482;2023-11-18T08:02:15;100660;;;3.8;94.8
79347;BME280;68815;48.810;44.482;2023-11-18T08:05:16;100656;;;3.8;94.8
79347;BME280;68815;48.810;44.482;2023-11-18T08:08:18;100659;;;3.7;94.8
79347;BME280;68815;48.810;44.482;2023-11-18T08:11:19;100668;;;3.7;94.6
79347;BME280;68815;48.810;44.482;2023-11-18T08:14:21;100676;;;3.7;95.1
79347;BME280;68815;48.810;44.482;2023-11-18T08:17:23;100681;;;3.7;94.5
79347;BME280;68815;48.810;44.482;2023-11-18T08:20:24;100680;;;3.5;94.3
79347;BME280;68815;48.810;44.482;2023-11-18T08:23:26;100675;;;3.5;94.6
79347;BME280;68815;48.810;44.482;2023-11-18T08:26:27;100678;;;3.6;94.5
79347;BME280;68815;48.810;44.482;2023-11-18T08:29:29;100672;;;3.5;94.3
79347;BME280;68815;48.810;44.482;2023-11-18T08:32:36;100680;;;3.5;93.9
79347;BME280;68815;48.810;44.482;2023-11-18T08:35:38;100680;;;3.4;93.5
79347;BME280;68815;48.810;44.482;2023-11-18T08:38:39;100685;;;3.4;93.1
79347;BME280;68815;48.810;44.482;2023-11-18T08:41:41;100684;;;3.4;93.5
79347;BME280;68815;48.810;44.482;2023-11-18T08:44:43;100684;;;3.5;93.3
79347;BME280;68815;48.810;44.482;2023-11-18T08:47:44;100685;;;3.5;93.2
79347;BME280;68815;48.810;44.482;2023-11-18T08:50:46;100691;;;3.4;93
79347;BME280;68815;48.810;44.482;2023-11-18T08:53:48;100690;;;3.4;93.1
79347;BME280;68815;48.810;44.482;2023-11-18T08:56:49;100695;;;3.4;93.4
79347;BME280;68815;48.810;44.482;2023-11-18T08:59:51;100692;;;3.3;93.5
79347;BME280;68815;48.810;44.482;2023-11-18T09:02:53;100707;;;3.3;93.3
79347;BME280;68815;48.810;44.482;2023-11-18T09:05:56;100703;;;3.3;93.7
79347;BME280;68815;48.810;44.482;2023-11-18T09:08:58;100705;;;3.2;93.6
79347;BME280;68815;48.810;44.482;2023-11-18T09:11:59;100699;;;3.2;93.6
79347;BME280;68815;48.810;44.482;2023-11-18T09:15:01;100705;;;3;94.4
79347;BME280;68815;48.810;44.482;2023-11-18T09:18:02;100711;;;3.1;94.7
79347;BME280;68815;48.810;44.482;2023-11-18T09:21:05;100709;;;3.1;94.6
79347;BME280;68815;48.810;44.482;2023-11-18T09:24:07;100704;;;3;94.7
79347;BME280;68815;48.810;44.482;2023-11-18T09:27:08;100720;;;2.9;95.1
79347;BME280;68815;48.810;44.482;2023-11-18T09:30:10;100712;;;2.9;94.8
79347;BME280;68815;48.810;44.482;2023-11-18T09:33:12;100724;;;3;94.9
79347;BME280;68815;48.810;44.482;2023-11-18T09:36:14;100724;;;3.1;94.4
79347;BME280;68815;48.810;44.482;2023-11-18T09:39:15;100727;;;3;94.3
79347;BME280;68815;48.810;44.482;2023-11-18T09:42:17;100732;;;3;94
79347;BME280;68815;48.810;44.482;2023-11-18T09:45:19;100731;;;3;94.3
79347;BME280;68815;48.810;44.482;2023-11-18T09:48:21;100736;;;2.9;94.6
79347;BME280;68815;48.810;44.482;2023-11-18T09:51:24;100733;;;3;95
79347;BME280;68815;48.810;44.482;2023-11-18T09:54:30;100737;;;3;94.6
79347;BME280;68815;48.810;44.482;2023-11-18T09:57:39;100741;;;2.9;94.9
79347;BME280;68815;48.810;44.482;2023-11-18T10:00:42;100756;;;3;94.7
79347;BME280;68815;48.810;44.482;2023-11-18T10:03:44;100755;;;3.1;94.3
79347;BME280;68815;48.810;44.482;2023-11-18T10:06:46;100763;;;2.9;94.6
79347;BME280;68815;48.810;44.482;2023-11-18T10:09:48;100775;;;2.9;94.3
79347;BME280;68815;48.810;44.482;2023-11-18T10:12:51;100772;;;2.9;93.9
79347;BME280;68815;48.810;44.482;2023-11-18T10:15:52;100772;;;3;93.9
79347;BME280;68815;48.810;44.482;2023-11-18T10:18:54;100780;;;3;93.7
79347;BME280;68815;48.810;44.482;2023-11-18T10:21:56;100784;;;3;93.9
79347;BME280;68815;48.810;44.482;2023-11-18T10:24:58;100789;;;3;93.8
79347;BME280;68815;48.810;44.482;2023-11-18T10:28:00;100789;;;2.9;94.2
79347;BME280;68815;48.810;44.482;2023-11-18T10:31:03;100788;;;2.9;94.3
79347;BME280;68815;48.810;44.482;2023-11-18T10:34:06;100787;;;3;94.8
79347;BME280;68815;48.810;44.482;2023-11-18T10:37:09;100784;;;3;94.4
79347;BME280;68815;48.810;44.482;2023-11-18T10:40:11;100782;;;3;94.7
79347;BME280;68815;48.810;44.482;2023-11-18T10:43:13;100788;;;3;94.8
79347;BME280;68815;48.810;44.482;2023-11-18T10:46:15;100797;;;3.1;94.8
79347;BME280;68815;48.810;44.482;2023-11-18T10:49:17;100793;;;3;95.2
79347;BME280;68815;48.810;44.482;2023-11-18T10:52:19;100797;;;3;95.3
79347;BME280;68815;48.810;44.482;2023-11-18T10:55:21;100793;;;3;95.5
79347;BME280;68815;48.810;44.482;2023-11-18T10:58:23;100800;;;3.1;95.6
79347;BME280;68815;48.810;44.482;2023-11-18T11:01:29;100803;;;3.1;95.6
79347;BME280;68815;48.810;44.482;2023-11-18T11:04:42;100832;;;3;94.7
79347;BME280;68815;48.810;44.482;2023-11-18T11:07:45;100853;;;3;95.3
79347;BME280;68815;48.810;44.482;2023-11-18T11:10:46;100824;;;3;95.9
79347;BME280;68815;48.810;44.482;2023-11-18T11:13:49;100833;;;3;95.3
79347;BME280;68815;48.810;44.482;2023-11-18T11:16:55;100826;;;3;95.6
79347;BME280;68815;48.810;44.482;2023-11-18T11:20:04;100829;;;3;95.5
79347;BME280;68815;48.810;44.482;2023-11-18T11:23:12;100836;;;3;95.4
79347;BME280;68815;48.810;44.482;2023-11-18T11:26:23;100838;;;2.9;95.4
79347;BME280;68815;48.810;44.482;2023-11-18T11:29:34;100838;;;2.9;95.5
79347;BME280;68815;48.810;44.482;2023-11-18T11:32:43;100838;;;3;95
79347;BME280;68815;48.810;44.482;2023-11-18T11:35:49;100839;;;3;94.6
79347;BME280;68815;48.810;44.482;2023-11-18T11:38:55;100841;;;3;94.9
79347;BME280;68815;48.810;44.482;2023-11-18T11:41:57;100846;;;3;95.1
79347;BME280;68815;48.810;44.482;2023-11-18T11:44:59;100855;;;2.9;95.1
79347;BME280;68815;48.810;44.482;2023-11-18T11:48:02;100860;;;2.9;95.1
79347;BME280;68815;48.810;44.482;2023-11-18T11:51:10;100860;;;2.9;95.4
79347;BME280;68815;48.810;44.482;2023-11-18T11:54:21;100858;;;2.8;95.8
79347;BME280;68815;48.810;44.482;2023-11-18T11:57:24;100856;;;2.8;95.1
79347;BME280;68815;48.810;44.482;2023-11-18T12:00:27;100859;;;2.8;95.2
79347;BME280;68815;48.810;44.482;2023-11-18T12:03:31;100869;;;2.8;95.1
79347;BME280;68815;48.810;44.482;2023-11-18T12:06:33;100867;;;2.8;95.5
79347;BME280;68815;48.810;44.482;2023-11-18T12:09:35;100870;;;2.7;95.4
79347;BME280;68815;48.810;44.482;2023-11-18T12:12:37;100877;;;2.7;95
79347;BME280;68815;48.810;44.482;2023-11-18T12:15:54;100877;;;2.6;95.4
79347;BME280;68815;48.810;44.482;2023-11-18T12:22:22;100891;;;2.5;95.6
79347;BME280;68815;48.810;44.482;2023-11-18T12:25:30;100897;;;2.5;95.5
79347;BME280;68815;48.810;44.482;2023-11-18T12:28:33;100903;;;2.5;95.5
79347;BME280;68815;48.810;44.482;2023-11-18T12:31:42;100917;;;2.6;95.6
79347;BME280;68815;48.810;44.482;2023-11-18T12:34:52;100910;;;2.6;95.4
79347;BME280;68815;48.810;44.482;2023-11-18T12:38:16;100924;;;2.6;94.6
79347;BME280;68815;48.810;44.482;2023-11-18T12:41:33;100935;;;2.7;95.1
79347;BME280;68815;48.810;44.482;2023-11-18T12:44:37;100936;;;2.6;94.6
79347;BME280;68815;48.810;44.482;2023-11-18T12:47:42;100930;;;2.6;94.7
79347;BME280;68815;48.810;44.482;2023-11-18T12:50:44;100928;;;2.6;95.1
79347;BME280;68815;48.810;44.482;2023-11-18T12:53:47;100930;;;2.6;94.8
79347;BME280;68815;48.810;44.482;2023-11-18T12:56:49;100935;;;2.5;95
79347;BME280;68815;48.810;44.482;2023-11-18T12:59:50;100942;;;2.5;94.6
79347;BME280;68815;48.810;44.482;2023-11-18T13:02:52;100941;;;2.5;94.9
79347;BME280;68815;48.810;44.482;2023-11-18T13:05:54;100942;;;2.6;94.7
79347;BME280;68815;48.810;44.482;2023-11-18T13:08:56;100947;;;2.6;94
79347;BME280;68815;48.810;44.482;2023-11-18T13:11:59;100956;;;2.5;94.1
79347;BME280;68815;48.810;44.482;2023-11-18T13:15:01;100953;;;2.5;94
79347;BME280;68815;48.810;44.482;2023-11-18T13:18:04;100958;;;2.5;94.1
79347;BME280;68815;48.810;44.482;2023-11-18T13:21:06;100964;;;2.5;94.3
79347;BME280;68815;48.810;44.482;2023-11-18T13:24:08;100967;;;2.5;94.2
79347;BME280;68815;48.810;44.482;2023-11-18T13:27:12;100976;;;2.4;94.4
79347;BME280;68815;48.810;44.482;2023-11-18T13:30:14;100973;;;2.5;94.2
79347;BME280;68815;48.810;44.482;2023-11-18T13:33:16;100972;;;2.4;94.2
79347;BME280;68815;48.810;44.482;2023-11-18T13:36:19;100980;;;2.3;94.5
79347;BME280;68815;48.810;44.482;2023-11-18T13:39:20;100981;;;2.4;94.7
79347;BME280;68815;48.810;44.482;2023-11-18T13:42:24;100974;;;2.3;94.6
79347;BME280;68815;48.810;44.482;2023-11-18T13:45:26;100971;;;2.3;94.1
79347;BME280;68815;48.810;44.482;2023-11-18T13:48:28;100976;;;2.3;93.7
79347;BME280;68815;48.810;44.482;2023-11-18T13:51:30;100990;;;2.3;93.5
79347;BME280;68815;48.810;44.482;2023-11-18T13:54:31;100986;;;2.2;92.8
79347;BME280;68815;48.810;44.482;2023-11-18T13:57:33;100988;;;2.3;93.1
79347;BME280;68815;48.810;44.482;2023-11-18T14:00:35;101013;;;2.2;92.9
79347;BME280;68815;48.810;44.482;2023-11-18T14:03:37;101006;;;2.2;92.9
79347;BME280;68815;48.810;44.482;2023-11-18T14:06:38;101012;;;2.2;93.2
79347;BME280;68815;48.810;44.482;2023-11-18T14:09:40;101018;;;2.1;92.8
79347;BME280;68815;48.810;44.482;2023-11-18T14:13:00;101008;;;2.1;93.5
79347;BME280;68815;48.810;44.482;2023-11-18T14:16:03;101025;;;2.1;93.5
79347;BME280;68815;48.810;44.482;2023-11-18T14:19:04;101031;;;2;92.7
79347;BME280;68815;48.810;44.482;2023-11-18T14:22:07;101028;;;2.1;92.9
79347;BME280;68815;48.810;44.482;2023-11-18T14:25:08;101042;;;2.1;92.8
79347;BME280;68815;48.810;44.482;2023-11-18T14:28:10;101037;;;2.1;93.1
79347;BME280;68815;48.810;44.482;2023-11-18T14:31:12;101042;;;2.1;93
79347;BME280;68815;48.810;44.482;2023-11-18T14:34:13;101043;;;2;92.9
79347;BME280;68815;48.810;44.482;2023-11-18T14:37:15;101048;;;2;93.5
79347;BME280;68815;48.810;44.482;2023-11-18T14:40:17;101041;;;2.1;93.3
79347;BME280;68815;48.810;44.482;2023-11-18T14:43:19;101044;;;2;93.7
79347;BME280;68815;48.810;44.482;2023-11-18T14:46:20;101051;;;2.1;93.8
79347;BME280;68815;48.810;44.482;2023-11-18T14:49:22;101059;;;2.1;94
79347;BME280;68815;48.810;44.482;2023-11-18T14:52:24;101055;;;2.1;93.6
79347;BME280;68815;48.810;44.482;2023-11-18T14:55:26;101054;;;1.9;93.5
79347;BME280;68815;48.810;44.482;2023-11-18T14:58:27;101069;;;1.9;93.6
79347;BME280;68815;48.810;44.482;2023-11-18T15:01:29;101055;;;1.9;93.7
79347;BME280;68815;48.810;44.482;2023-11-18T15:04:30;101069;;;1.8;93.7
79347;BME280;68815;48.810;44.482;2023-11-18T15:07:32;101074;;;1.9;94.2
79347;BME280;68815;48.810;44.482;2023-11-18T15:10:34;101077;;;1.9;94.1
79347;BME280;68815;48.810;44.482;2023-11-18T15:13:35;101085;;;1.8;94
79347;BME280;68815;48.810;44.482;2023-11-18T15:16:38;101115;;;1.9;93.6
79347;BME280;68815;48.810;44.482;2023-11-18T15:19:39;101086;;;1.8;93.5
79347;BME280;68815;48.810;44.482;2023-11-18T15:22:41;101097;;;1.9;93.8
79347;BME280;68815;48.810;44.482;2023-11-18T15:25:43;101093;;;1.8;94.2
79347;BME280;68815;48.810;44.482;2023-11-18T15:28:45;101101;;;1.9;94
79347;BME280;68815;48.810;44.482;2023-11-18T15:31:47;101143;;;1.8;94
79347;BME280;68815;48.810;44.482;2023-11-18T15:34:48;101118;;;1.8;94.4
79347;BME280;68815;48.810;44.482;2023-11-18T15:37:50;101107;;;1.7;94.6
79347;BME280;68815;48.810;44.482;2023-11-18T15:40:52;101084;;;1.7;95.2
79347;BME280;68815;48.810;44.482;2023-11-18T15:43:53;101086;;;1.8;94.8
79347;BME280;68815;48.810;44.482;2023-11-18T15:46:55;101122;;;1.7;94.6
79347;BME280;68815;48.810;44.482;2023-11-18T15:49:56;101095;;;1.6;94.8
79347;BME280;68815;48.810;44.482;2023-11-18T15:52:58;101087;;;1.7;94.8
79347;BME280;68815;48.810;44.482;2023-11-18T15:56:00;101098;;;1.7;95.2
79347;BME280;68815;48.810;44.482;2023-11-18T15:59:01;101099;;;1.6;94.8
79347;BME280;68815;48.810;44.482;2023-11-18T16:02:05;101103;;;1.7;95.8
79347;BME280;68815;48.810;44.482;2023-11-18T16:05:07;101114;;;1.6;95.8
79347;BME280;68815;48.810;44.482;2023-11-18T16:08:09;101118;;;1.6;95.4
79347;BME280;68815;48.810;44.482;2023-11-18T16:11:10;101129;;;1.5;95.2
79347;BME280;68815;48.810;44.482;2023-11-18T16:14:12;101128;;;1.6;95.6
79347;BME280;68815;48.810;44.482;2023-11-18T16:17:14;101137;;;1.6;95.7
79347;BME280;68815;48.810;44.482;2023-11-18T16:20:16;101147;;;1.7;95.5
79347;BME280;68815;48.810;44.482;2023-11-18T16:23:18;101153;;;1.6;95.1
79347;BME280;68815;48.810;44.482;2023-11-18T16:26:20;101155;;;1.7;95
79347;BME280;68815;48.810;44.482;2023-11-18T16:29:21;101167;;;1.7;95
79347;BME280;68815;48.810;44.482;2023-11-18T16:32:23;101166;;;1.7;93.5
79347;BME280;68815;48.810;44.482;2023-11-18T16:35:25;101156;;;1.6;94.1
79347;BME280;68815;48.810;44.482;2023-11-18T16:38:26;101160;;;1.6;94.7
79347;BME280;68815;48.810;44.482;2023-11-18T16:41:28;101168;;;1.7;94.5
79347;BME280;68815;48.810;44.482;2023-11-18T16:44:30;101167;;;1.7;94.3
79347;BME280;68815;48.810;44.482;2023-11-18T16:47:31;101181;;;1.8;94
79347;BME280;68815;48.810;44.482;2023-11-18T16:50:33;101178;;;1.7;94.5
79347;BME280;68815;48.810;44.482;2023-11-18T16:53:35;101187;;;1.8;94.6
79347;BME280;68815;48.810;44.482;2023-11-18T16:56:37;101188;;;1.7;94.3
79347;BME280;68815;48.810;44.482;2023-11-18T16:59:38;101174;;;1.7;93.3
79347;BME280;68815;48.810;44.482;2023-11-18T17:02:40;101168;;;1.7;93.9
79347;BME280;68815;48.810;44.482;2023-11-18T17:05:41;101159;;;1.7;94.5
79347;BME280;68815;48.810;44.482;2023-11-18T17:08:43;101166;;;1.8;94
79347;BME280;68815;48.810;44.482;2023-11-18T17:11:46;101150;;;1.7;93.9